Main page
METAR-TAF:

METAR-TAF

Airports :

Milan, Italy

Milan–Malpensa Airport

latitude: 45-37N, longitude: 008-44E, elevation: 234 m

Current weather observation

The report was made 23 minutes ago, at 08:50 UTC
Wind 2 kt from variable directions
Temperature 9°C
Humidity 100%
Pressure 1019 hPa
Visibility 10 km or more
Broken clouds at a height of 6000 ft
light rain

METAR: LIMC 260850Z VRB02KT 9999 -RA BKN060 09/09 Q1019 NOSIG

Time: 11:13 (09:13 UTC)

Forecast

The report was made 4 hours and 13 minutes ago, at 05:00 UTC
Forecast valid from 26 at 06 UTC to 27 at 12 UTC
Wind 5 kt from variable directions
Visibility: 8000 m
Scattered clouds at a height of 2500 ft
Broken clouds at a height of 6000 ft
Temporary
from 26 at 06 UTC to 26 at 10 UTC
rain
Temporary
from 26 at 21 UTC to 27 at 01 UTC
rain

TAF: LIMC 260500Z 2606/2712 VRB05KT 8000 SCT025 BKN060 TEMPO 2606/2610 RA TEMPO 2621/2701 RA

Weather observations and forecasts of more than 4000 airports (METAR and TAF reports).

The available stations are represented by yellow and red dots on the map.

Hover mouse over dot to see the name of the station.

Then click to see weather observations and forecasts.

To change the map : click on the green buttons with a black cross to zoom in, on the green button with a dash to zoom out, or on the green arrows for adjacent maps.


METAR-TAF: